createdAt,value
2022-12-23T00:00:20.802Z,21.80
2022-12-23T00:02:49.413Z,21.80
2022-12-23T00:05:17.094Z,21.80
2022-12-23T00:07:45.104Z,21.80
2022-12-23T00:10:15.393Z,21.80
2022-12-23T00:13:01.614Z,21.80
2022-12-23T00:15:29.321Z,21.80
2022-12-23T00:17:56.891Z,21.70
2022-12-23T00:20:24.594Z,21.70
2022-12-23T00:23:07.517Z,21.70
2022-12-23T00:25:41.884Z,21.70
2022-12-23T00:28:11.906Z,21.70
2022-12-23T00:30:55.368Z,21.70
2022-12-23T00:33:26.420Z,21.70
2022-12-23T00:35:54.842Z,21.70
2022-12-23T00:38:41.816Z,21.70
2022-12-23T00:41:34.542Z,21.70
2022-12-23T00:44:03.591Z,21.70
2022-12-23T00:46:32.574Z,21.70
2022-12-23T00:49:21.130Z,21.70
2022-12-23T00:51:48.820Z,21.70
2022-12-23T00:54:17.135Z,21.70
2022-12-23T00:56:44.632Z,21.70
2022-12-23T00:59:12.088Z,21.70
2022-12-23T01:01:58.504Z,21.70
2022-12-23T01:04:45.027Z,21.70
2022-12-23T01:07:12.553Z,21.60
2022-12-23T01:09:40.111Z,21.70
2022-12-23T01:12:07.726Z,21.60
2022-12-23T01:14:35.590Z,21.60
2022-12-23T01:17:03.366Z,21.70
2022-12-23T01:19:31.155Z,21.60
2022-12-23T01:21:58.932Z,21.60
2022-12-23T01:24:31.743Z,21.60
2022-12-23T01:27:00.150Z,21.60
2022-12-23T01:29:27.902Z,21.60
2022-12-23T01:31:55.391Z,21.60
2022-12-23T01:34:23.078Z,21.60
2022-12-23T01:36:50.575Z,21.60
2022-12-23T01:39:18.314Z,21.60
2022-12-23T01:42:04.276Z,21.60
2022-12-23T01:44:50.600Z,21.60
2022-12-23T01:47:35.182Z,21.60
2022-12-23T01:50:33.238Z,21.60
2022-12-23T01:53:43.199Z,21.60
2022-12-23T01:56:40.227Z,21.60
2022-12-23T01:59:33.111Z,21.60
2022-12-23T02:02:20.060Z,21.60
2022-12-23T02:04:48.926Z,21.60
2022-12-23T02:07:36.708Z,21.60
2022-12-23T02:10:06.065Z,21.60
2022-12-23T02:12:50.829Z,21.60
2022-12-23T02:16:02.233Z,21.60
2022-12-23T02:18:57.203Z,21.60
2022-12-23T02:21:33.356Z,21.60
2022-12-23T02:24:17.989Z,21.60
2022-12-23T02:27:15.785Z,21.60
2022-12-23T02:30:57.678Z,21.60
2022-12-23T02:33:54.809Z,21.60
2022-12-23T02:36:44.459Z,21.60
2022-12-23T02:39:32.040Z,21.50
2022-12-23T02:42:45.413Z,21.60
2022-12-23T02:45:44.872Z,21.50
2022-12-23T02:48:31.524Z,21.50
2022-12-23T02:51:00.666Z,21.50
2022-12-23T02:53:35.261Z,21.50
2022-12-23T02:56:05.844Z,21.50
2022-12-23T02:59:07.685Z,21.50
2022-12-23T03:01:36.361Z,21.50
2022-12-23T03:04:06.539Z,21.50
2022-12-23T03:06:40.435Z,21.50
2022-12-23T03:09:09.129Z,21.50
2022-12-23T03:11:58.995Z,21.50
2022-12-23T03:14:56.011Z,21.50
2022-12-23T03:18:00.079Z,21.50
2022-12-23T03:20:43.063Z,21.50
2022-12-23T03:23:41.231Z,21.50
2022-12-23T03:27:01.377Z,21.50
2022-12-23T03:29:55.956Z,21.50
2022-12-23T03:32:26.349Z,21.50
2022-12-23T03:34:56.810Z,21.50
2022-12-23T03:37:26.745Z,21.50
2022-12-23T03:40:07.857Z,21.50
2022-12-23T03:42:39.600Z,21.40
2022-12-23T03:45:39.925Z,21.50
2022-12-23T03:48:28.195Z,21.50
2022-12-23T03:51:01.779Z,21.40
2022-12-23T03:53:36.537Z,21.50
2022-12-23T03:56:10.195Z,21.40
2022-12-23T03:58:54.363Z,21.40
2022-12-23T04:01:42.790Z,21.50
2022-12-23T04:04:23.642Z,21.40
2022-12-23T04:07:19.173Z,21.40
2022-12-23T04:09:47.643Z,21.40
2022-12-23T04:12:15.591Z,21.40
2022-12-23T04:14:50.592Z,21.40
2022-12-23T04:17:18.886Z,21.40
2022-12-23T04:19:47.762Z,21.40
2022-12-23T04:22:16.523Z,21.40
2022-12-23T04:24:44.293Z,21.40
2022-12-23T04:27:16.143Z,21.40
2022-12-23T04:29:44.600Z,21.40
2022-12-23T04:32:12.216Z,21.40
2022-12-23T04:34:39.728Z,21.40
2022-12-23T04:37:07.321Z,21.40
2022-12-23T04:39:35.303Z,21.40
2022-12-23T04:42:03.038Z,21.40
2022-12-23T04:44:30.675Z,21.40
2022-12-23T04:46:58.391Z,21.40
2022-12-23T04:49:25.877Z,21.40
2022-12-23T04:51:53.243Z,21.40
2022-12-23T04:54:20.927Z,21.40
2022-12-23T04:56:48.586Z,21.40
2022-12-23T04:59:16.547Z,21.40
2022-12-23T05:01:44.369Z,21.40
2022-12-23T05:04:12.260Z,21.30
2022-12-23T05:06:39.802Z,21.30
2022-12-23T05:09:07.199Z,21.40
2022-12-23T05:11:40.216Z,21.30
2022-12-23T05:14:13.270Z,21.30
2022-12-23T05:16:40.837Z,21.30
2022-12-23T05:19:08.851Z,21.30
2022-12-23T05:21:36.331Z,21.30
2022-12-23T05:24:04.401Z,21.30
2022-12-23T05:26:31.811Z,21.30
2022-12-23T05:28:59.283Z,21.30
2022-12-23T05:31:27.253Z,21.30
2022-12-23T05:33:54.995Z,21.30
2022-12-23T05:36:23.257Z,21.30
2022-12-23T05:38:50.716Z,21.30
2022-12-23T05:41:18.402Z,21.30
2022-12-23T05:43:45.746Z,21.30
2022-12-23T05:46:13.773Z,21.30
2022-12-23T05:48:41.301Z,21.30
2022-12-23T05:51:08.672Z,21.30
2022-12-23T05:53:36.469Z,21.30
2022-12-23T05:56:06.140Z,21.30
2022-12-23T05:58:33.559Z,21.30
2022-12-23T06:01:03.312Z,21.30
2022-12-23T06:03:31.193Z,21.30
2022-12-23T06:05:59.057Z,21.30
2022-12-23T06:08:26.516Z,21.30
2022-12-23T06:10:54.499Z,21.30
2022-12-23T06:13:21.983Z,21.30
2022-12-23T06:15:49.758Z,21.30
2022-12-23T06:18:17.932Z,21.30
2022-12-23T06:20:48.652Z,21.20
2022-12-23T06:23:16.323Z,21.30
2022-12-23T06:25:43.695Z,21.30
2022-12-23T06:28:11.196Z,21.20
2022-12-23T06:30:38.784Z,21.30
2022-12-23T06:33:06.424Z,21.30
2022-12-23T06:35:33.967Z,21.20
2022-12-23T06:38:01.737Z,21.20
2022-12-23T06:40:29.888Z,21.20
2022-12-23T06:42:57.369Z,21.30
2022-12-23T06:45:24.712Z,21.20
2022-12-23T06:47:52.015Z,21.20
2022-12-23T06:50:19.579Z,21.20
2022-12-23T06:52:47.283Z,21.30
2022-12-23T06:55:15.523Z,21.20
2022-12-23T06:57:43.198Z,21.20
2022-12-23T07:00:11.642Z,21.20
2022-12-23T07:02:39.491Z,21.20
2022-12-23T07:05:07.556Z,21.20
2022-12-23T07:07:35.004Z,21.20
2022-12-23T07:10:02.696Z,21.20
2022-12-23T07:12:30.512Z,21.20
2022-12-23T07:14:58.120Z,21.20
2022-12-23T07:17:25.510Z,21.20
2022-12-23T07:19:52.786Z,21.20
2022-12-23T07:22:21.559Z,21.20
2022-12-23T07:24:49.503Z,21.20
2022-12-23T07:27:17.149Z,21.20
2022-12-23T07:29:44.798Z,21.20
2022-12-23T07:32:12.352Z,21.20
2022-12-23T07:34:40.188Z,21.20
2022-12-23T07:37:07.724Z,21.20
2022-12-23T07:39:35.371Z,21.10
2022-12-23T07:42:33.963Z,21.10
2022-12-23T07:44:49.959Z,21.20
2022-12-23T07:47:18.040Z,21.20
2022-12-23T07:49:45.820Z,21.20
2022-12-23T07:52:13.745Z,21.10
2022-12-23T07:54:41.413Z,21.10
2022-12-23T07:57:09.208Z,21.20
2022-12-23T07:59:36.908Z,21.10
2022-12-23T08:02:04.634Z,21.20
2022-12-23T08:04:32.212Z,21.20
2022-12-23T08:06:59.790Z,21.20
2022-12-23T08:09:27.097Z,21.10
2022-12-23T08:11:57.216Z,21.10
2022-12-23T08:14:24.903Z,21.20
2022-12-23T08:16:52.375Z,21.10
2022-12-23T08:19:21.616Z,21.10
2022-12-23T08:21:49.131Z,21.10
2022-12-23T08:24:16.770Z,21.10
2022-12-23T08:26:44.328Z,21.10
2022-12-23T08:29:11.923Z,21.10
2022-12-23T08:31:39.550Z,21.10
2022-12-23T08:34:10.961Z,21.10
2022-12-23T08:36:40.206Z,21.10
2022-12-23T08:39:11.143Z,21.10
2022-12-23T08:41:43.736Z,21.10
2022-12-23T08:44:12.489Z,21.10
2022-12-23T08:46:40.584Z,21.10
2022-12-23T08:49:09.087Z,21.10
2022-12-23T08:51:40.639Z,21.10
2022-12-23T08:54:08.100Z,21.10
2022-12-23T08:56:40.563Z,21.10
2022-12-23T08:59:18.575Z,21.10
2022-12-23T09:01:47.116Z,21.10
2022-12-23T09:04:15.041Z,21.10
2022-12-23T09:06:43.295Z,21.10
2022-12-23T09:09:14.425Z,21.10
2022-12-23T09:11:42.285Z,21.10
2022-12-23T09:14:11.753Z,21.10
2022-12-23T09:16:39.961Z,21.00
2022-12-23T09:19:09.033Z,21.10
2022-12-23T09:21:37.309Z,21.10
2022-12-23T09:24:05.771Z,21.10
2022-12-23T09:26:33.753Z,21.10
2022-12-23T09:29:02.014Z,21.10
2022-12-23T09:31:36.523Z,21.10
2022-12-23T09:34:06.353Z,21.10
2022-12-23T09:36:34.328Z,21.10
2022-12-23T09:39:02.111Z,21.10
2022-12-23T09:42:38.145Z,21.10
2022-12-23T09:45:43.164Z,21.10
2022-12-23T09:48:20.554Z,21.10
2022-12-23T09:50:48.630Z,21.10
2022-12-23T09:53:56.061Z,21.10
2022-12-23T09:56:49.783Z,21.10
2022-12-23T09:59:41.928Z,21.10
2022-12-23T10:02:32.098Z,21.10
2022-12-23T10:05:24.145Z,21.10
2022-12-23T10:08:14.608Z,21.10
2022-12-23T10:10:48.926Z,21.10
2022-12-23T10:13:38.828Z,21.20
2022-12-23T10:16:35.315Z,21.20
2022-12-23T10:19:16.159Z,21.20
2022-12-23T10:22:06.425Z,21.20
2022-12-23T10:24:38.780Z,21.20
2022-12-23T10:27:33.367Z,21.20
2022-12-23T10:30:51.381Z,21.20
2022-12-23T10:33:19.000Z,21.20
2022-12-23T10:36:03.653Z,21.20
2022-12-23T10:38:39.944Z,21.20
2022-12-23T10:41:35.926Z,21.20
2022-12-23T10:44:54.352Z,21.20
2022-12-23T10:48:05.120Z,21.20
2022-12-23T10:50:59.071Z,21.20
2022-12-23T10:53:42.093Z,21.20
2022-12-23T10:56:10.490Z,21.20
2022-12-23T10:58:46.055Z,21.20
2022-12-23T11:01:26.051Z,21.20
2022-12-23T11:04:10.227Z,21.20
2022-12-23T11:07:10.822Z,21.20
2022-12-23T11:09:48.497Z,21.20
2022-12-23T11:12:16.131Z,21.20
2022-12-23T11:14:52.903Z,21.10
2022-12-23T11:17:36.398Z,21.10
2022-12-23T11:20:18.343Z,21.20
2022-12-23T11:23:00.094Z,21.20
2022-12-23T11:25:39.297Z,21.10
2022-12-23T11:28:22.243Z,21.20
2022-12-23T11:30:58.253Z,21.20
2022-12-23T11:33:35.967Z,21.10
2022-12-23T11:36:07.684Z,21.10
2022-12-23T11:38:38.146Z,21.10
2022-12-23T11:41:06.313Z,21.20
2022-12-23T11:43:34.428Z,21.10
2022-12-23T11:46:34.088Z,21.20
2022-12-23T11:49:21.499Z,21.20
2022-12-23T11:52:05.772Z,21.20
2022-12-23T11:54:34.532Z,21.10
2022-12-23T11:57:15.582Z,21.20
2022-12-23T11:59:50.287Z,21.10
2022-12-23T12:02:36.562Z,21.10
2022-12-23T12:05:38.781Z,21.10
2022-12-23T12:08:13.822Z,21.10
2022-12-23T12:10:42.521Z,21.10
2022-12-23T12:13:41.920Z,21.20
2022-12-23T12:16:24.531Z,21.20
2022-12-23T12:18:56.311Z,21.30
2022-12-23T12:21:32.731Z,21.20
2022-12-23T12:24:30.437Z,21.30
2022-12-23T12:27:06.865Z,21.40
2022-12-23T12:29:49.102Z,21.40
2022-12-23T12:32:30.244Z,21.50
2022-12-23T12:35:07.282Z,21.60
2022-12-23T12:37:49.263Z,21.60
2022-12-23T12:40:40.963Z,21.70
2022-12-23T12:43:25.155Z,21.80
2022-12-23T12:46:29.021Z,21.80
2022-12-23T12:49:32.963Z,21.90
2022-12-23T12:52:26.394Z,21.90
2022-12-23T12:55:14.392Z,22.00
2022-12-23T12:57:42.325Z,22.10
2022-12-23T13:00:20.823Z,22.20
2022-12-23T13:03:12.596Z,22.20
2022-12-23T13:05:54.060Z,22.20
2022-12-23T13:09:02.781Z,22.30
2022-12-23T13:15:05.816Z,22.40
2022-12-23T13:17:48.536Z,22.40
2022-12-23T13:20:28.211Z,22.40
2022-12-23T13:23:34.311Z,22.50
2022-12-23T13:26:18.565Z,22.50
2022-12-23T13:29:23.859Z,22.60
2022-12-23T13:32:16.998Z,22.50
2022-12-23T13:35:14.669Z,22.60
2022-12-23T13:38:00.490Z,22.60
2022-12-23T13:41:06.804Z,22.60
2022-12-23T13:43:53.518Z,22.60
2022-12-23T13:46:39.025Z,22.70
2022-12-23T13:49:15.168Z,22.70
2022-12-23T13:51:56.216Z,22.70
2022-12-23T13:55:04.950Z,22.80
2022-12-23T13:58:09.673Z,22.80
2022-12-23T14:00:37.397Z,22.80
2022-12-23T14:03:18.924Z,22.80
2022-12-23T14:05:54.087Z,22.90
2022-12-23T14:08:25.399Z,22.90
2022-12-23T14:11:05.411Z,22.90
2022-12-23T14:13:52.239Z,22.90
2022-12-23T14:16:47.174Z,23.00
2022-12-23T14:19:36.447Z,23.00
2022-12-23T14:22:29.010Z,23.00
2022-12-23T14:25:46.167Z,23.00
2022-12-23T14:28:46.773Z,23.10
2022-12-23T14:31:38.426Z,23.10
2022-12-23T14:34:32.152Z,23.10
2022-12-23T14:37:21.439Z,23.10
2022-12-23T14:39:50.478Z,23.10
2022-12-23T14:42:42.883Z,23.10
2022-12-23T14:45:39.319Z,23.20
2022-12-23T14:48:34.778Z,23.20
2022-12-23T14:51:41.227Z,23.20
2022-12-23T14:54:15.391Z,23.20
2022-12-23T14:57:07.135Z,23.20
2022-12-23T14:59:52.557Z,23.20
2022-12-23T15:02:28.518Z,23.30
2022-12-23T15:04:58.592Z,23.30
2022-12-23T15:07:35.062Z,23.20
2022-12-23T15:10:21.325Z,23.20
2022-12-23T15:12:55.390Z,23.20
2022-12-23T15:15:30.156Z,23.20
2022-12-23T15:18:07.893Z,23.30
2022-12-23T15:20:35.435Z,23.20
2022-12-23T15:23:11.137Z,23.20
2022-12-23T15:25:56.926Z,23.20
2022-12-23T15:28:40.121Z,23.10
2022-12-23T15:31:27.187Z,23.10
2022-12-23T15:34:05.280Z,23.20
2022-12-23T15:36:40.623Z,23.10
2022-12-23T15:39:18.820Z,23.10
2022-12-23T15:41:48.608Z,23.10
2022-12-23T15:44:34.539Z,23.10
2022-12-23T15:47:02.418Z,23.10
2022-12-23T15:49:30.110Z,23.10
2022-12-23T15:52:13.879Z,23.10
2022-12-23T15:54:57.186Z,23.10
2022-12-23T15:57:29.013Z,23.20
2022-12-23T15:59:58.811Z,23.20
2022-12-23T16:03:00.388Z,23.20
2022-12-23T16:05:36.414Z,23.20
2022-12-23T16:08:16.480Z,23.20
2022-12-23T16:10:57.490Z,23.20
2022-12-23T16:13:26.052Z,23.20
2022-12-23T16:15:53.844Z,23.20
2022-12-23T16:18:32.856Z,23.20
2022-12-23T16:21:04.535Z,23.30
2022-12-23T16:23:36.377Z,23.30
2022-12-23T16:26:04.732Z,23.30
2022-12-23T16:28:44.960Z,23.30
2022-12-23T16:31:17.556Z,23.30
2022-12-23T16:33:54.352Z,23.30
2022-12-23T16:36:29.390Z,23.40
2022-12-23T16:39:09.099Z,23.40
2022-12-23T16:41:36.888Z,23.40
2022-12-23T16:44:05.098Z,23.40
2022-12-23T16:46:37.184Z,23.40
2022-12-23T16:49:11.227Z,23.40
2022-12-23T16:51:40.947Z,23.50
2022-12-23T16:54:20.136Z,23.50
2022-12-23T16:56:48.217Z,23.50
2022-12-23T16:59:15.936Z,23.50
2022-12-23T17:01:46.440Z,23.50
2022-12-23T17:04:14.466Z,23.60
2022-12-23T17:06:42.834Z,23.60
2022-12-23T17:09:11.737Z,23.60
2022-12-23T17:11:44.607Z,23.70
2022-12-23T17:14:25.381Z,23.70
2022-12-23T17:16:53.302Z,23.90
2022-12-23T17:19:27.993Z,24.00
2022-12-23T17:22:02.519Z,23.90
2022-12-23T17:24:30.277Z,24.00
2022-12-23T17:26:58.517Z,24.00
2022-12-23T17:29:26.500Z,24.10
2022-12-23T17:31:53.920Z,23.90
2022-12-23T17:34:24.247Z,24.00
2022-12-23T17:36:53.216Z,24.10
2022-12-23T17:39:22.577Z,24.10
2022-12-23T17:41:50.995Z,24.10
2022-12-23T17:44:19.043Z,24.10
2022-12-23T17:46:47.322Z,24.20
2022-12-23T17:49:16.377Z,24.20
2022-12-23T17:51:44.251Z,24.30
2022-12-23T17:54:24.387Z,24.20
2022-12-23T17:56:52.920Z,24.20
2022-12-23T17:59:21.550Z,24.20
2022-12-23T18:01:49.307Z,24.30
2022-12-23T18:04:17.084Z,24.30
2022-12-23T18:06:44.734Z,24.30
2022-12-23T18:09:12.333Z,24.30
2022-12-23T18:11:46.171Z,24.30
2022-12-23T18:14:28.219Z,24.30
2022-12-23T18:16:55.650Z,24.40
2022-12-23T18:19:23.169Z,24.40
2022-12-23T18:21:51.883Z,24.50
2022-12-23T18:24:19.433Z,24.50
2022-12-23T18:26:47.858Z,24.50
2022-12-23T18:29:18.821Z,24.60
2022-12-23T18:31:51.406Z,24.60
2022-12-23T18:34:20.876Z,24.60
2022-12-23T18:36:48.790Z,24.60
2022-12-23T18:39:16.573Z,24.60
2022-12-23T18:41:47.378Z,24.60
2022-12-23T18:44:21.744Z,24.60
2022-12-23T18:46:50.455Z,24.60
2022-12-23T18:49:18.242Z,24.70
2022-12-23T18:51:47.125Z,24.60
2022-12-23T18:54:16.346Z,24.80
2022-12-23T18:56:44.207Z,24.70
2022-12-23T18:59:28.987Z,24.70
2022-12-23T19:01:57.990Z,24.70
2022-12-23T19:04:27.160Z,24.70
2022-12-23T19:06:56.533Z,24.70
2022-12-23T19:09:24.652Z,24.70
2022-12-23T19:11:54.482Z,24.70
2022-12-23T19:14:22.326Z,24.80
2022-12-23T19:16:52.396Z,24.80
2022-12-23T19:19:21.703Z,24.80
2022-12-23T19:21:49.602Z,24.80
2022-12-23T19:24:17.550Z,24.80
2022-12-23T19:26:44.949Z,24.80
2022-12-23T19:29:12.563Z,24.90
2022-12-23T19:31:40.861Z,24.90
2022-12-23T19:34:14.369Z,24.90
2022-12-23T19:36:42.861Z,24.90
2022-12-23T19:39:17.264Z,24.90
2022-12-23T19:41:45.639Z,24.90
2022-12-23T19:44:13.419Z,25.00
2022-12-23T19:46:40.988Z,24.90
2022-12-23T19:49:10.672Z,24.90
2022-12-23T19:51:42.673Z,25.00
2022-12-23T19:54:10.123Z,25.00
2022-12-23T19:56:37.921Z,24.90
2022-12-23T19:59:05.513Z,25.00
2022-12-23T20:01:33.145Z,25.00
2022-12-23T20:04:00.989Z,25.00
2022-12-23T20:06:35.049Z,25.00
2022-12-23T20:09:06.685Z,25.00
2022-12-23T20:11:38.878Z,25.10
2022-12-23T20:14:07.364Z,25.10
2022-12-23T20:16:39.103Z,25.00
2022-12-23T20:19:07.483Z,25.10
2022-12-23T20:21:39.415Z,25.00
2022-12-23T20:24:07.713Z,25.10
2022-12-23T20:26:35.500Z,25.10
2022-12-23T20:29:03.453Z,25.10
2022-12-23T20:31:37.615Z,25.20
2022-12-23T20:34:07.876Z,25.10
2022-12-23T20:36:41.138Z,25.10
2022-12-23T20:39:08.664Z,25.10
2022-12-23T20:41:36.241Z,25.10
2022-12-23T20:44:33.368Z,25.10
2022-12-23T20:46:51.171Z,25.20
2022-12-23T20:49:19.840Z,25.10
2022-12-23T20:51:47.399Z,25.10
2022-12-23T20:54:14.764Z,25.10
2022-12-23T20:56:42.356Z,25.10
2022-12-23T20:59:09.897Z,25.10
2022-12-23T21:01:39.394Z,25.20
2022-12-23T21:04:13.350Z,25.10
2022-12-23T21:06:40.953Z,25.10
2022-12-23T21:09:12.442Z,25.20
2022-12-23T21:11:43.889Z,25.10
2022-12-23T21:14:12.396Z,25.10
2022-12-23T21:16:40.927Z,25.20
2022-12-23T21:19:14.858Z,25.20
2022-12-23T21:21:42.381Z,25.20
2022-12-23T21:24:11.108Z,25.30
2022-12-23T21:26:38.997Z,25.20
2022-12-23T21:29:09.127Z,25.30
2022-12-23T21:31:40.333Z,25.30
2022-12-23T21:34:09.200Z,25.30
2022-12-23T21:36:40.992Z,25.30
2022-12-23T21:39:13.588Z,25.30
2022-12-23T21:41:44.203Z,25.40
2022-12-23T21:44:16.036Z,25.40
2022-12-23T21:46:44.050Z,25.40
2022-12-23T21:49:13.962Z,25.40
2022-12-23T21:51:43.637Z,25.40
2022-12-23T21:54:12.472Z,25.40
2022-12-23T21:56:41.262Z,25.40
2022-12-23T21:59:12.900Z,25.40
2022-12-23T22:01:41.839Z,25.40
2022-12-23T22:04:09.658Z,25.40
2022-12-23T22:06:43.750Z,25.50
2022-12-23T22:09:16.698Z,25.50
2022-12-23T22:11:45.435Z,25.50
2022-12-23T22:14:16.701Z,25.60
2022-12-23T22:16:44.559Z,25.70
2022-12-23T22:19:12.634Z,25.60
2022-12-23T22:21:40.573Z,25.70
2022-12-23T22:24:14.257Z,25.60
2022-12-23T22:26:42.115Z,25.70
2022-12-23T22:29:12.088Z,25.70
2022-12-23T22:31:45.600Z,25.70
2022-12-23T22:34:20.421Z,25.70
2022-12-23T22:36:48.956Z,25.70
2022-12-23T22:39:21.001Z,25.70
2022-12-23T22:41:51.157Z,25.70
2022-12-23T22:44:20.166Z,25.70
2022-12-23T22:46:48.048Z,25.70
2022-12-23T22:49:19.420Z,25.80
2022-12-23T22:51:46.931Z,25.80
2022-12-23T22:54:14.533Z,25.80
2022-12-23T22:56:42.091Z,25.70
2022-12-23T22:59:22.047Z,25.70
2022-12-23T23:01:57.077Z,25.80
2022-12-23T23:04:27.744Z,25.80
2022-12-23T23:06:55.354Z,25.80
2022-12-23T23:09:23.299Z,25.70
2022-12-23T23:11:53.006Z,25.80
2022-12-23T23:14:23.539Z,25.70
2022-12-23T23:16:51.335Z,25.80
2022-12-23T23:19:20.670Z,25.70
2022-12-23T23:21:49.033Z,25.80
2022-12-23T23:24:16.463Z,25.70
2022-12-23T23:26:44.001Z,25.70
2022-12-23T23:29:11.612Z,25.70
2022-12-23T23:31:42.075Z,25.70
2022-12-23T23:34:10.684Z,25.70
2022-12-23T23:36:38.413Z,25.70
2022-12-23T23:39:06.059Z,25.80
2022-12-23T23:41:33.874Z,25.70
2022-12-23T23:44:01.581Z,25.70
2022-12-23T23:46:31.027Z,25.70
2022-12-23T23:48:58.605Z,25.80
2022-12-23T23:51:26.781Z,25.70
2022-12-23T23:53:54.211Z,25.70
2022-12-23T23:56:25.840Z,25.70
2022-12-23T23:58:55.137Z,25.70
